Time;durP1;ratioP1;P1;durP2;ratioP2;P2;SDS_P1;SDS_P2;PMS_P1;PMS_P2;Temp;Humidity;BMP_temperature;BMP_pressure;BME280_temperature;BME280_humidity;BME280_pressure;Samples;Min_cycle;Max_cycle;Signal;HPM_P1;HPM_P2
2024/01/02 00:00:30;;;;;;;27.33;12.13;;;-13.30;99.90;;;;;;4973279;28;20191;-82
2024/01/02 00:02:57;;;;;;;25.02;10.82;;;-13.50;99.90;;;;;;4972937;28;20184;-82
2024/01/02 00:05:25;;;;;;;26.23;12.27;;;-13.60;99.90;;;;;;4953149;29;20810;-81
2024/01/02 00:07:52;;;;;;;26.15;11.43;;;-13.60;99.90;;;;;;4948907;28;20598;-82
2024/01/02 00:10:20;;;;;;;27.17;12.30;;;-13.50;99.90;;;;;;4971157;28;20192;-82
2024/01/02 00:12:47;;;;;;;25.95;11.63;;;-13.60;99.90;;;;;;4949609;28;20223;-82
2024/01/02 00:15:15;;;;;;;27.10;12.37;;;-13.40;99.90;;;;;;4945472;28;20199;-82
2024/01/02 00:17:42;;;;;;;24.90;11.60;;;-13.60;99.90;;;;;;4929275;28;20546;-83
2024/01/02 00:20:13;;;;;;;25.60;11.67;;;-14.20;99.90;;;;;;4954894;28;20199;-82
2024/01/02 00:22:40;;;;;;;26.00;10.60;;;-13.90;99.90;;;;;;4952642;28;20204;-82
2024/01/02 00:25:08;;;;;;;25.10;11.97;;;-13.80;99.90;;;;;;4972318;28;20212;-81
2024/01/02 00:27:35;;;;;;;29.30;12.37;;;-14.00;99.90;;;;;;4945668;28;20184;-82
2024/01/02 00:30:04;;;;;;;25.30;11.23;;;-14.00;99.90;;;;;;4955564;28;20196;-80
2024/01/02 00:32:33;;;;;;;29.73;13.17;;;-14.10;99.90;;;;;;4969607;28;20190;-81
2024/01/02 00:35:02;;;;;;;26.37;11.20;;;-13.80;99.90;;;;;;4972182;28;20188;-82
2024/01/02 00:37:29;;;;;;;25.27;11.33;;;-14.30;99.90;;;;;;4954848;28;20196;-80
2024/01/02 00:39:57;;;;;;;29.20;13.23;;;-14.20;99.90;;;;;;4949030;28;20247;-81
2024/01/02 00:42:24;;;;;;;27.73;11.80;;;-13.90;99.90;;;;;;4954939;28;20247;-82
2024/01/02 00:44:52;;;;;;;26.93;12.60;;;-13.80;99.90;;;;;;4971957;28;20195;-82
2024/01/02 00:47:21;;;;;;;26.00;12.13;;;-14.20;99.90;;;;;;4954650;28;20282;-82
2024/01/02 00:49:49;;;;;;;26.20;12.33;;;-14.50;99.90;;;;;;4954812;28;20223;-81
2024/01/02 00:52:16;;;;;;;27.40;13.63;;;-14.20;99.90;;;;;;4945771;28;20191;-83
2024/01/02 00:54:44;;;;;;;24.67;12.90;;;-14.10;99.90;;;;;;4967845;28;20196;-82
2024/01/02 00:57:11;;;;;;;24.37;11.57;;;-14.20;99.90;;;;;;4967481;28;20234;-81
2024/01/02 00:59:39;;;;;;;26.97;11.23;;;-14.00;99.90;;;;;;4970264;28;20207;-81
2024/01/02 01:02:06;;;;;;;25.92;10.43;;;-13.90;99.90;;;;;;4971731;28;20187;-81
2024/01/02 01:04:34;;;;;;;21.55;9.57;;;-13.80;99.90;;;;;;4969826;28;20184;-82
2024/01/02 01:07:01;;;;;;;24.73;10.77;;;-13.90;99.90;;;;;;4952139;28;20275;-82
2024/01/02 01:09:28;;;;;;;18.70;8.43;;;-14.00;99.90;;;;;;4972203;28;20228;-84
2024/01/02 01:11:56;;;;;;;23.75;10.20;;;-14.60;99.90;;;;;;4971516;28;20554;-82
2024/01/02 01:14:23;;;;;;;23.13;10.27;;;-14.50;99.90;;;;;;4932392;28;20685;-80
2024/01/02 01:16:51;;;;;;;20.77;9.70;;;-14.60;99.90;;;;;;4971331;28;20188;-81
2024/01/02 01:19:18;;;;;;;22.00;9.47;;;-14.80;99.90;;;;;;4953838;28;20586;-81
2024/01/02 01:21:46;;;;;;;22.73;9.57;;;-14.90;99.90;;;;;;4944265;28;20204;-80
2024/01/02 01:24:13;;;;;;;22.70;9.52;;;-14.60;99.90;;;;;;4951995;28;20211;-80
2024/01/02 01:26:41;;;;;;;18.23;8.67;;;-14.90;99.90;;;;;;4954088;28;20754;-80
2024/01/02 01:29:09;;;;;;;19.73;9.23;;;-14.80;99.90;;;;;;4971471;28;20551;-80
2024/01/02 01:31:36;;;;;;;15.90;7.43;;;-14.60;99.90;;;;;;4952538;28;20561;-80
2024/01/02 01:34:04;;;;;;;20.50;9.03;;;-14.60;99.90;;;;;;4971400;28;20199;-80
2024/01/02 01:36:31;;;;;;;19.10;8.57;;;-14.70;99.90;;;;;;4970833;28;20280;-79
2024/01/02 01:38:59;;;;;;;17.33;8.00;;;-15.10;99.90;;;;;;4953333;28;20311;-79
2024/01/02 01:41:27;;;;;;;18.10;8.47;;;-14.90;99.90;;;;;;4953372;28;20243;-80
2024/01/02 01:43:54;;;;;;;18.30;8.68;;;-14.50;99.90;;;;;;4953469;28;20191;-82
2024/01/02 01:46:24;;;;;;;18.95;8.38;;;-14.50;99.90;;;;;;4971025;28;20190;-81
2024/01/02 01:48:52;;;;;;;21.15;8.93;;;-14.70;99.90;;;;;;4953740;28;20212;-81
2024/01/02 01:51:22;;;;;;;17.40;8.30;;;-14.80;99.90;;;;;;4971170;28;20674;-80
2024/01/02 01:53:50;;;;;;;19.70;7.80;;;-14.90;99.90;;;;;;4970674;28;20219;-81
2024/01/02 01:56:17;;;;;;;19.33;8.15;;;-15.00;99.90;;;;;;4970535;28;20236;-82
2024/01/02 01:58:45;;;;;;;18.07;8.13;;;-15.00;99.90;;;;;;4967883;28;20239;-81
2024/01/02 02:01:12;;;;;;;17.08;8.00;;;-14.90;99.90;;;;;;4968084;28;20228;-82
2024/01/02 02:03:40;;;;;;;18.93;9.20;;;-14.90;99.90;;;;;;4970989;28;20191;-81
2024/01/02 02:06:08;;;;;;;20.13;8.13;;;-15.00;99.90;;;;;;4952140;28;20279;-81
2024/01/02 02:08:36;;;;;;;17.17;7.57;;;-15.10;99.90;;;;;;4953582;28;20226;-80
2024/01/02 02:11:04;;;;;;;18.83;8.40;;;-15.10;99.90;;;;;;4970499;28;20184;-82
2024/01/02 02:13:32;;;;;;;17.93;8.40;;;-15.00;99.90;;;;;;4970179;28;20601;-81
2024/01/02 02:16:01;;;;;;;19.63;8.60;;;-15.00;99.90;;;;;;4961847;28;20195;-82
2024/01/02 02:18:29;;;;;;;18.67;8.03;;;-15.10;99.90;;;;;;4927279;28;20220;-81
2024/01/02 02:20:56;;;;;;;16.70;7.37;;;-15.30;99.90;;;;;;4970476;28;20266;-80
2024/01/02 02:23:23;;;;;;;17.83;7.80;;;-15.40;99.90;;;;;;4951241;28;20283;-80
2024/01/02 02:25:51;;;;;;;19.00;9.32;;;-15.20;99.90;;;;;;4943023;28;20565;-78
2024/01/02 02:28:18;;;;;;;20.07;8.30;;;-14.90;99.90;;;;;;4970345;28;20211;-79
2024/01/02 02:30:46;;;;;;;17.60;7.93;;;-15.00;99.90;;;;;;4950075;29;20200;-80
2024/01/02 02:33:13;;;;;;;18.33;8.53;;;-15.20;99.90;;;;;;4952256;28;20192;-80
2024/01/02 02:35:41;;;;;;;16.40;7.80;;;-15.30;99.90;;;;;;4970324;28;20763;-80
2024/01/02 02:38:08;;;;;;;19.73;8.83;;;-15.30;99.90;;;;;;4942416;28;20200;-81
2024/01/02 02:40:37;;;;;;;18.23;8.03;;;-15.10;99.90;;;;;;4942771;29;20193;-80
2024/01/02 02:43:05;;;;;;;18.20;8.27;;;-15.20;99.90;;;;;;4967685;28;20196;-81
2024/01/02 02:45:34;;;;;;;18.23;7.47;;;-15.10;99.90;;;;;;4941676;29;20243;-80
2024/01/02 02:48:01;;;;;;;16.97;7.73;;;-15.00;99.90;;;;;;4948527;28;20188;-81
2024/01/02 02:50:29;;;;;;;16.42;7.50;;;-15.80;99.90;;;;;;4969799;28;20199;-80
2024/01/02 02:52:57;;;;;;;17.23;8.20;;;-16.00;99.90;;;;;;4943196;29;20196;-80
2024/01/02 02:55:24;;;;;;;20.37;8.20;;;-15.50;99.90;;;;;;4969410;28;20199;-82
2024/01/02 02:57:51;;;;;;;16.50;7.32;;;-15.30;99.90;;;;;;4959436;28;20227;-80
2024/01/02 03:00:21;;;;;;;15.63;7.85;;;-15.50;99.90;;;;;;4970293;28;20239;-80
2024/01/02 03:02:48;;;;;;;18.87;8.60;;;-15.30;99.90;;;;;;4968201;28;20215;-80
2024/01/02 03:05:16;;;;;;;17.53;7.97;;;-15.10;99.90;;;;;;4949574;29;20193;-79
2024/01/02 03:07:44;;;;;;;17.30;7.00;;;-15.20;99.90;;;;;;4945259;28;20665;-80
2024/01/02 03:10:14;;;;;;;18.37;7.43;;;-15.30;99.90;;;;;;4969684;28;20206;-81
2024/01/02 03:12:41;;;;;;;16.83;6.83;;;-15.20;99.90;;;;;;4969318;28;20191;-81
2024/01/02 03:15:13;;;;;;;13.85;6.43;;;-15.10;99.90;;;;;;4969521;28;20196;-83
2024/01/02 03:17:41;;;;;;;16.93;6.90;;;-15.10;99.90;;;;;;4952250;28;20198;-82
2024/01/02 03:20:09;;;;;;;16.27;7.37;;;-15.30;99.90;;;;;;4969396;28;20286;-81
2024/01/02 03:22:37;;;;;;;18.37;7.03;;;-15.30;99.90;;;;;;4949465;28;20188;-83
2024/01/02 03:25:05;;;;;;;13.75;5.53;;;-15.40;99.90;;;;;;4968527;28;20262;-81
2024/01/02 03:27:32;;;;;;;15.32;6.85;;;-15.50;99.90;;;;;;4969480;28;20235;-80
2024/01/02 03:29:59;;;;;;;14.63;6.00;;;-15.50;99.90;;;;;;4973874;28;20192;-80
2024/01/02 03:32:27;;;;;;;15.50;6.87;;;-15.70;99.90;;;;;;4950811;28;20211;-80
2024/01/02 03:34:56;;;;;;;16.00;6.50;;;-15.50;99.90;;;;;;4941957;28;20203;-80
2024/01/02 03:37:24;;;;;;;16.43;6.57;;;-15.20;99.90;;;;;;4964136;28;20280;-79
2024/01/02 03:39:51;;;;;;;13.10;6.00;;;-15.40;99.90;;;;;;4971303;28;20231;-80
2024/01/02 03:42:19;;;;;;;14.10;5.47;;;-15.60;99.90;;;;;;4945861;28;20552;-80
2024/01/02 03:44:46;;;;;;;15.37;5.93;;;-15.60;99.90;;;;;;4955912;28;20939;-83
2024/01/02 03:47:13;;;;;;;11.90;5.40;;;-16.00;99.90;;;;;;4972919;28;20187;-80
2024/01/02 03:49:41;;;;;;;15.27;5.53;;;-15.70;99.90;;;;;;4964568;28;20254;-80
2024/01/02 03:52:09;;;;;;;13.30;5.40;;;-16.10;99.90;;;;;;4972960;28;20273;-80
2024/01/02 03:54:36;;;;;;;12.50;5.33;;;-15.90;99.90;;;;;;4955415;28;20654;-81
2024/01/02 03:57:04;;;;;;;13.60;5.50;;;-15.80;99.90;;;;;;4952238;28;20699;-80
2024/01/02 03:59:32;;;;;;;13.93;5.67;;;-15.70;99.90;;;;;;4940387;28;20211;-79
2024/01/02 04:01:59;;;;;;;12.07;5.60;;;-15.80;99.90;;;;;;4955569;28;20294;-81
2024/01/02 04:04:27;;;;;;;14.13;5.97;;;-16.00;99.90;;;;;;4940001;29;20196;-80
2024/01/02 04:06:54;;;;;;;13.07;5.40;;;-15.90;99.90;;;;;;4946588;28;20188;-80
2024/01/02 04:09:22;;;;;;;12.70;5.90;;;-16.00;99.90;;;;;;4929439;28;20626;-80
2024/01/02 04:11:50;;;;;;;17.10;6.07;;;-16.20;99.90;;;;;;4930551;29;20580;-82
2024/01/02 04:14:17;;;;;;;12.13;5.00;;;-16.00;99.90;;;;;;4955052;28;20196;-81
2024/01/02 04:16:45;;;;;;;11.57;4.72;;;-16.20;99.90;;;;;;4931096;28;20192;-82
2024/01/02 04:19:14;;;;;;;13.80;4.90;;;-16.40;99.90;;;;;;4946839;28;20196;-81
2024/01/02 04:21:41;;;;;;;12.47;4.90;;;-16.40;99.90;;;;;;4952690;28;20223;-80
2024/01/02 04:24:09;;;;;;;12.47;4.80;;;-16.10;99.90;;;;;;4972594;28;20188;-82
2024/01/02 04:26:36;;;;;;;13.00;5.37;;;-15.90;99.90;;;;;;4972336;28;20195;-79
2024/01/02 04:29:04;;;;;;;13.57;4.53;;;-16.00;99.90;;;;;;4954669;28;20569;-79
2024/01/02 04:31:31;;;;;;;11.67;5.03;;;-16.10;99.90;;;;;;4937600;28;20663;-82
2024/01/02 04:33:58;;;;;;;11.40;5.07;;;-16.00;99.90;;;;;;4955275;28;20227;-82
2024/01/02 04:36:26;;;;;;;13.10;5.13;;;-16.20;99.90;;;;;;4954849;28;20745;-82
2024/01/02 04:38:53;;;;;;;12.73;4.83;;;-16.10;99.90;;;;;;4944289;28;20212;-81
2024/01/02 04:41:21;;;;;;;15.40;5.33;;;-16.20;99.90;;;;;;4971318;28;20275;-80
2024/01/02 04:43:48;;;;;;;14.03;5.70;;;-16.00;99.90;;;;;;4967576;28;20204;-80
2024/01/02 04:46:16;;;;;;;11.23;5.20;;;-16.00;99.90;;;;;;4972333;28;20243;-80
2024/01/02 04:48:43;;;;;;;11.50;4.00;;;-15.70;99.90;;;;;;4972486;28;20533;-82
2024/01/02 04:51:11;;;;;;;11.13;4.73;;;-16.00;99.90;;;;;;4955134;28;21074;-82
2024/01/02 04:53:38;;;;;;;10.73;4.57;;;-16.20;99.90;;;;;;4955174;28;20196;-79
2024/01/02 04:56:06;;;;;;;11.43;5.03;;;-16.40;99.90;;;;;;4957537;28;20231;-79
2024/01/02 04:58:34;;;;;;;10.83;4.77;;;-16.40;99.90;;;;;;4972396;28;20192;-82
2024/01/02 05:01:03;;;;;;;11.13;5.23;;;-16.40;99.90;;;;;;4972047;28;20223;-83
2024/01/02 05:03:31;;;;;;;8.67;4.20;;;-16.50;99.90;;;;;;4969935;28;20640;-79
2024/01/02 05:05:58;;;;;;;12.70;5.10;;;-16.40;99.90;;;;;;4945463;28;20282;-80
2024/01/02 05:08:26;;;;;;;10.02;4.57;;;-16.40;99.90;;;;;;4929334;28;20203;-79
2024/01/02 05:10:54;;;;;;;10.07;4.10;;;-16.20;99.90;;;;;;4971765;28;20196;-80
2024/01/02 05:13:21;;;;;;;11.63;4.55;;;-16.40;99.90;;;;;;4970744;28;20201;-81
2024/01/02 05:15:49;;;;;;;13.05;5.15;;;-16.30;99.90;;;;;;4971863;28;20286;-83
2024/01/02 05:18:16;;;;;;;13.57;5.05;;;-16.20;99.90;;;;;;4945550;28;20188;-82
2024/01/02 05:20:44;;;;;;;11.27;4.50;;;-16.20;99.90;;;;;;4971370;28;20211;-81
2024/01/02 05:23:12;;;;;;;10.32;4.63;;;-16.20;99.90;;;;;;4953788;28;20609;-80
2024/01/02 05:25:43;;;;;;;12.07;5.17;;;-16.20;99.90;;;;;;4971363;28;20817;-80
2024/01/02 05:28:10;;;;;;;10.97;4.80;;;-16.00;99.90;;;;;;4943408;28;20200;-79
2024/01/02 05:30:38;;;;;;;12.53;4.87;;;-16.30;99.90;;;;;;4971064;28;20603;-79
2024/01/02 05:33:06;;;;;;;11.97;4.70;;;-16.20;99.90;;;;;;4971059;28;20188;-81
2024/01/02 05:35:33;;;;;;;9.57;4.33;;;-16.20;99.90;;;;;;4971644;28;20239;-80
2024/01/02 05:38:03;;;;;;;11.55;4.18;;;-16.50;99.90;;;;;;4971614;28;20204;-80
2024/01/02 05:40:30;;;;;;;11.07;4.80;;;-16.50;99.90;;;;;;4970848;28;20291;-82
2024/01/02 05:42:58;;;;;;;9.97;4.33;;;-16.40;99.90;;;;;;4967400;28;20216;-80
2024/01/02 05:45:25;;;;;;;13.25;4.60;;;-16.50;99.90;;;;;;4966780;28;20252;-82
2024/01/02 05:47:53;;;;;;;12.37;4.93;;;-16.40;99.90;;;;;;4970552;28;20192;-79
2024/01/02 05:50:21;;;;;;;11.40;4.43;;;-16.30;99.90;;;;;;4970720;28;20196;-80
2024/01/02 05:52:48;;;;;;;15.33;5.43;;;-16.30;99.90;;;;;;4970484;28;20200;-82
2024/01/02 05:55:15;;;;;;;13.53;5.30;;;-16.50;99.90;;;;;;4970734;28;20199;-79
2024/01/02 05:57:43;;;;;;;8.90;4.23;;;-16.60;99.90;;;;;;4949858;29;20989;-82
2024/01/02 06:00:11;;;;;;;12.13;4.63;;;-16.50;99.90;;;;;;4969714;28;20693;-79
2024/01/02 06:02:38;;;;;;;10.17;4.80;;;-16.40;99.90;;;;;;4970469;28;20262;-79
2024/01/02 06:05:06;;;;;;;15.37;5.07;;;-16.40;99.90;;;;;;4970907;28;20668;-80
2024/01/02 06:07:34;;;;;;;15.13;5.17;;;-16.60;99.90;;;;;;4970635;28;20188;-82
2024/01/02 06:10:01;;;;;;;13.77;4.93;;;-16.50;99.90;;;;;;4970381;28;20243;-83
2024/01/02 06:12:29;;;;;;;9.47;4.20;;;-16.20;99.90;;;;;;4970089;28;20199;-81
2024/01/02 06:14:56;;;;;;;9.13;4.07;;;-16.10;99.90;;;;;;4970102;28;20191;-82
2024/01/02 06:17:23;;;;;;;27.40;5.93;;;-16.00;99.90;;;;;;4970200;28;20725;-79
2024/01/02 06:19:51;;;;;;;10.80;4.60;;;-16.00;99.90;;;;;;4969433;28;20726;-81
2024/01/02 06:22:18;;;;;;;10.07;4.43;;;-16.50;99.90;;;;;;4970138;28;20556;-82
2024/01/02 06:24:46;;;;;;;9.43;3.90;;;-16.20;99.90;;;;;;4969973;28;20726;-80
2024/01/02 06:27:14;;;;;;;12.80;5.13;;;-16.10;99.90;;;;;;4970252;28;20191;-80
2024/01/02 06:29:41;;;;;;;10.67;4.77;;;-16.30;99.90;;;;;;4970312;28;20897;-80
2024/01/02 06:32:09;;;;;;;13.47;7.07;;;-16.20;99.90;;;;;;4969896;28;20210;-80
2024/01/02 06:34:36;;;;;;;13.13;6.30;;;-16.10;99.90;;;;;;4945827;29;20193;-82
2024/01/02 06:37:04;;;;;;;14.00;6.37;;;-16.30;99.90;;;;;;4945719;28;20235;-80
2024/01/02 06:39:31;;;;;;;15.17;7.80;;;-16.40;99.90;;;;;;4969914;28;20207;-82
2024/01/02 06:41:59;;;;;;;12.83;5.80;;;-16.30;99.90;;;;;;4969857;28;20614;-81
2024/01/02 06:44:26;;;;;;;10.20;4.93;;;-16.20;99.90;;;;;;4952917;28;20606;-81
2024/01/02 06:46:54;;;;;;;14.00;5.17;;;-16.00;99.90;;;;;;4969889;28;20692;-80
2024/01/02 06:49:21;;;;;;;11.07;5.13;;;-16.00;99.90;;;;;;4969719;28;20192;-80
2024/01/02 06:51:49;;;;;;;12.73;4.67;;;-16.20;99.90;;;;;;4969821;28;20287;-81
2024/01/02 06:54:16;;;;;;;10.13;4.03;;;-15.90;99.90;;;;;;4971995;28;20196;-81
2024/01/02 06:56:44;;;;;;;11.73;4.20;;;-16.10;99.90;;;;;;4950438;28;20319;-80
2024/01/02 06:59:11;;;;;;;12.13;4.93;;;-16.20;99.90;;;;;;4952630;28;20294;-81
2024/01/02 07:01:39;;;;;;;11.83;5.63;;;-16.30;99.90;;;;;;4951135;28;20674;-81
2024/01/02 07:04:06;;;;;;;15.63;8.73;;;-16.30;99.90;;;;;;4968277;28;20188;-79
2024/01/02 07:06:33;;;;;;;12.83;5.53;;;-16.30;99.90;;;;;;4949037;28;20193;-80
2024/01/02 07:09:01;;;;;;;10.50;4.95;;;-16.30;99.90;;;;;;4963226;28;20219;-79
2024/01/02 07:11:28;;;;;;;12.07;5.17;;;-16.20;99.90;;;;;;4942790;28;20197;-81
2024/01/02 07:13:56;;;;;;;10.80;4.93;;;-16.20;99.90;;;;;;4969300;28;20187;-79
2024/01/02 07:16:23;;;;;;;12.40;4.87;;;-16.30;99.90;;;;;;4950546;28;20228;-79
2024/01/02 07:18:51;;;;;;;10.47;4.50;;;-16.20;99.90;;;;;;4942148;28;20266;-82
2024/01/02 07:21:18;;;;;;;12.50;6.53;;;-16.30;99.90;;;;;;4969926;28;20206;-81
2024/01/02 07:23:46;;;;;;;14.10;7.27;;;-16.30;99.90;;;;;;4946790;28;20199;-80
2024/01/02 07:26:14;;;;;;;12.03;5.00;;;-16.20;99.90;;;;;;4952045;28;20207;-81
2024/01/02 07:28:41;;;;;;;12.30;4.70;;;-16.20;99.90;;;;;;4968302;28;20191;-81
2024/01/02 07:31:10;;;;;;;9.47;4.43;;;-16.60;99.90;;;;;;4965948;28;20216;-81
2024/01/02 07:33:38;;;;;;;11.37;4.43;;;-16.40;99.90;;;;;;4969981;28;20192;-81
2024/01/02 07:36:07;;;;;;;10.50;5.60;;;-16.50;99.90;;;;;;4952386;28;20187;-81
2024/01/02 07:38:34;;;;;;;14.90;7.47;;;-16.50;99.90;;;;;;4969194;28;20646;-80
2024/01/02 07:41:02;;;;;;;10.87;4.53;;;-16.30;99.90;;;;;;4968955;28;20306;-80
2024/01/02 07:43:30;;;;;;;13.40;5.30;;;-16.20;99.90;;;;;;4940588;28;20203;-80
2024/01/02 07:45:59;;;;;;;11.03;4.13;;;-16.00;99.90;;;;;;4943189;28;20220;-81
2024/01/02 07:48:26;;;;;;;13.67;4.47;;;-16.20;99.90;;;;;;4957122;28;20192;-81
2024/01/02 07:50:54;;;;;;;10.47;4.27;;;-15.90;99.90;;;;;;4968728;28;20642;-80
2024/01/02 07:53:22;;;;;;;8.37;3.93;;;-16.10;99.90;;;;;;4965265;28;20779;-81
2024/01/02 07:55:49;;;;;;;15.20;10.30;;;-16.20;99.90;;;;;;4951485;28;20204;-82
2024/01/02 07:58:17;;;;;;;10.15;4.90;;;-15.90;99.90;;;;;;4969193;28;20734;-80
2024/01/02 08:00:44;;;;;;;10.87;4.50;;;-16.20;99.90;;;;;;4952242;28;20212;-80
2024/01/02 08:03:14;;;;;;;9.20;3.60;;;-16.20;99.90;;;;;;4969236;28;20180;-80
2024/01/02 08:05:42;;;;;;;8.43;3.33;;;-16.30;99.90;;;;;;4951646;28;20188;-80
2024/01/02 08:08:09;;;;;;;10.10;4.37;;;-16.50;99.90;;;;;;4941756;28;20192;-81
2024/01/02 08:10:38;;;;;;;7.60;2.97;;;-16.60;99.90;;;;;;4946218;28;20200;-81
2024/01/02 08:13:05;;;;;;;10.73;3.80;;;-16.60;99.90;;;;;;4966223;28;20223;-81
2024/01/02 08:15:33;;;;;;;10.17;3.77;;;-16.70;99.90;;;;;;4971523;28;20663;-80
2024/01/02 08:18:08;;;;;;;8.27;3.57;;;-16.30;99.90;;;;;;4968316;28;20222;-81
2024/01/02 08:20:37;;;;;;;12.33;5.47;;;-16.20;99.90;;;;;;4972522;28;20207;-81
2024/01/02 08:23:05;;;;;;;7.10;3.10;;;-16.10;99.90;;;;;;4968422;28;20192;-79
2024/01/02 08:25:33;;;;;;;12.10;4.20;;;-16.00;99.90;;;;;;4972686;28;20188;-81
2024/01/02 08:28:00;;;;;;;9.33;4.27;;;-16.20;99.90;;;;;;4971730;28;20200;-80
2024/01/02 08:30:28;;;;;;;8.40;3.50;;;-16.30;99.90;;;;;;4972932;28;20188;-79
2024/01/02 08:32:56;;;;;;;7.30;3.47;;;-16.40;99.90;;;;;;4971546;28;20270;-80
2024/01/02 08:35:23;;;;;;;8.37;3.67;;;-16.70;99.90;;;;;;4953561;28;20202;-81
2024/01/02 08:37:51;;;;;;;11.63;4.00;;;-16.50;99.90;;;;;;4971203;28;20882;-79
2024/01/02 08:40:18;;;;;;;8.80;4.43;;;-16.60;99.90;;;;;;4947623;28;20200;-79
2024/01/02 08:42:46;;;;;;;8.40;3.50;;;-16.60;99.90;;;;;;4966319;28;20312;-79
2024/01/02 08:45:13;;;;;;;10.67;4.20;;;-16.30;99.90;;;;;;4968941;28;20192;-79
2024/01/02 08:47:41;;;;;;;8.33;3.90;;;-16.20;99.90;;;;;;4952635;28;20198;-79
2024/01/02 08:50:10;;;;;;;11.83;4.47;;;-16.10;99.90;;;;;;4951490;28;20279;-79
2024/01/02 08:52:38;;;;;;;8.90;3.33;;;-16.00;99.90;;;;;;4953075;28;20203;-79
2024/01/02 08:55:06;;;;;;;8.33;3.63;;;-16.20;99.90;;;;;;4971960;28;20184;-79
2024/01/02 08:57:33;;;;;;;10.83;4.17;;;-16.40;99.90;;;;;;4971719;28;20223;-80
2024/01/02 09:00:01;;;;;;;10.93;3.93;;;-16.20;99.90;;;;;;4946844;28;20907;-79
2024/01/02 09:02:28;;;;;;;11.67;4.60;;;-16.50;99.90;;;;;;4972003;28;20191;-79
2024/01/02 09:04:56;;;;;;;10.17;4.23;;;-16.30;99.90;;;;;;4952039;28;20189;-79
2024/01/02 09:07:23;;;;;;;8.23;3.37;;;-16.40;99.90;;;;;;4965782;28;20192;-79
2024/01/02 09:09:51;;;;;;;10.80;4.00;;;-16.40;99.90;;;;;;4971642;28;20693;-79
2024/01/02 09:12:18;;;;;;;11.90;3.70;;;-16.30;99.90;;;;;;4971784;28;20680;-79
2024/01/02 09:14:45;;;;;;;8.03;3.50;;;-16.30;99.90;;;;;;4967379;28;20734;-80
2024/01/02 09:17:13;;;;;;;10.00;3.33;;;-16.00;99.90;;;;;;4971525;28;20199;-78
2024/01/02 09:19:40;;;;;;;9.37;3.60;;;-16.30;99.90;;;;;;4971069;28;20184;-81
2024/01/02 09:22:08;;;;;;;15.60;5.47;;;-16.20;99.90;;;;;;4953442;28;20291;-78
2024/01/02 09:24:36;;;;;;;12.37;4.63;;;-16.40;99.90;;;;;;4960742;28;20192;-79
2024/01/02 09:27:06;;;;;;;12.60;4.43;;;-16.40;99.90;;;;;;4970963;28;20275;-79
2024/01/02 09:29:33;;;;;;;11.53;5.93;;;-16.40;99.90;;;;;;4971035;28;20192;-78
2024/01/02 09:32:03;;;;;;;11.70;5.33;;;-16.30;99.90;;;;;;4971462;28;20756;-80
2024/01/02 09:34:32;;;;;;;12.03;4.10;;;-16.10;99.90;;;;;;4971763;28;20206;-81
2024/01/02 09:37:00;;;;;;;9.90;4.23;;;-16.20;99.90;;;;;;4952945;28;20544;-80
2024/01/02 09:39:27;;;;;;;13.03;4.83;;;-16.10;99.90;;;;;;4971034;28;20210;-79
2024/01/02 09:42:12;;;;;;;8.68;3.47;;;-16.20;99.90;;;;;;4970913;28;20204;-78
2024/01/02 09:45:02;;;;;;;10.67;4.53;;;-16.00;99.90;;;;;;4965029;28;20191;-79
2024/01/02 09:48:05;;;;;;;12.53;5.00;;;-15.80;99.90;;;;;;4943872;28;20703;-79
2024/01/02 09:51:02;;;;;;;9.47;4.13;;;-15.80;99.90;;;;;;4970001;28;20243;-78
2024/01/02 09:54:05;;;;;;;12.37;4.90;;;-16.00;99.90;;;;;;4949697;28;20677;-78
2024/01/02 09:56:41;;;;;;;10.13;3.80;;;-16.30;99.90;;;;;;4969762;28;20250;-79
2024/01/02 09:59:19;;;;;;;10.13;4.15;;;-15.90;99.90;;;;;;4968648;28;20307;-79
2024/01/02 10:02:15;;;;;;;10.27;3.97;;;-16.10;99.90;;;;;;4952141;28;20953;-79
2024/01/02 10:04:55;;;;;;;10.27;5.03;;;-16.00;99.90;;;;;;4971017;28;20191;-79
2024/01/02 10:07:33;;;;;;;12.53;5.97;;;-15.70;99.90;;;;;;4970618;28;20192;-79
2024/01/02 10:10:27;;;;;;;11.80;4.80;;;-15.60;99.90;;;;;;4970126;28;20229;-79
2024/01/02 10:13:13;;;;;;;14.90;4.47;;;-15.70;99.90;;;;;;4948427;29;20197;-79
2024/01/02 10:16:09;;;;;;;12.13;5.47;;;-15.70;99.90;;;;;;4929991;28;20214;-80
2024/01/02 10:18:53;;;;;;;7.25;3.40;;;-15.60;99.90;;;;;;4966391;28;20196;-78
2024/01/02 10:21:29;;;;;;;12.30;3.60;;;-15.90;99.90;;;;;;4943650;28;20220;-79
2024/01/02 10:24:15;;;;;;;11.33;4.53;;;-15.60;99.90;;;;;;4970825;28;20591;-80
2024/01/02 10:26:56;;;;;;;9.93;4.47;;;-15.70;99.90;;;;;;4972276;28;20187;-79
2024/01/02 10:29:37;;;;;;;13.70;5.67;;;-15.90;99.90;;;;;;4946633;29;20192;-79
2024/01/02 10:32:24;;;;;;;9.47;4.53;;;-15.60;99.90;;;;;;4960127;28;20191;-78
2024/01/02 10:34:55;;;;;;;10.57;4.33;;;-15.60;99.90;;;;;;4951444;28;20216;-78
2024/01/02 10:37:28;;;;;;;10.40;4.20;;;-15.60;99.90;;;;;;4926619;28;20208;-79
2024/01/02 10:40:07;;;;;;;9.77;4.15;;;-15.50;99.90;;;;;;4969922;28;20188;-79
2024/01/02 10:42:50;;;;;;;9.82;5.07;;;-15.30;99.90;;;;;;4942412;29;20200;-80
2024/01/02 10:45:24;;;;;;;9.33;4.70;;;-15.30;99.90;;;;;;4968395;28;20196;-80
2024/01/02 10:48:21;;;;;;;8.85;3.42;;;-15.40;99.90;;;;;;4970092;28;20923;-81
2024/01/02 10:51:09;;;;;;;11.67;4.50;;;-15.60;99.90;;;;;;4962870;28;20176;-81
2024/01/02 10:53:54;;;;;;;9.27;4.33;;;-15.50;99.90;;;;;;4964252;28;20495;-81
2024/01/02 10:56:46;;;;;;;9.27;4.20;;;-15.20;99.90;;;;;;4968297;28;20238;-81
2024/01/02 10:59:35;;;;;;;14.83;7.00;;;-15.50;99.90;;;;;;4942630;28;20198;-81
2024/01/02 11:02:11;;;;;;;8.33;3.73;;;-15.50;99.90;;;;;;4938647;28;20209;-78
2024/01/02 11:04:53;;;;;;;10.63;4.30;;;-15.30;99.90;;;;;;4940026;29;20196;-80
2024/01/02 11:07:25;;;;;;;13.17;4.40;;;-15.10;99.90;;;;;;4966862;28;20192;-80
2024/01/02 11:10:09;;;;;;;12.52;4.45;;;-15.10;99.90;;;;;;4959736;28;20188;-78
2024/01/02 11:13:06;;;;;;;10.43;4.40;;;-15.10;99.90;;;;;;4952406;28;20650;-78
2024/01/02 11:15:43;;;;;;;9.03;3.73;;;-15.20;99.90;;;;;;4969390;28;20191;-80
2024/01/02 11:18:13;;;;;;;9.45;4.45;;;-15.00;99.90;;;;;;4948903;29;20193;-82
2024/01/02 11:21:01;;;;;;;8.70;3.73;;;-15.00;99.90;;;;;;4963516;28;20212;-81
2024/01/02 11:23:41;;;;;;;6.37;3.13;;;-15.30;99.90;;;;;;4960899;28;20278;-81
2024/01/02 11:26:28;;;;;;;9.63;4.40;;;-15.20;99.90;;;;;;4951665;28;20195;-81
2024/01/02 11:29:04;;;;;;;10.87;4.07;;;-15.30;99.90;;;;;;4951162;28;20198;-79
2024/01/02 11:31:34;;;;;;;9.43;4.70;;;-15.30;99.90;;;;;;4968270;28;20612;-79
2024/01/02 11:34:58;;;;;;;12.55;6.85;;;-15.00;99.90;;;;;;4946535;28;20200;-79
2024/01/02 11:37:39;;;;;;;9.97;3.93;;;-15.20;99.90;;;;;;4916626;29;20208;-79
2024/01/02 11:40:22;;;;;;;8.00;4.07;;;-15.00;99.90;;;;;;4944798;29;20200;-81
2024/01/02 11:42:56;;;;;;;9.33;4.03;;;-15.10;99.90;;;;;;4965684;28;20195;-81
2024/01/02 11:45:26;;;;;;;9.83;4.00;;;-15.10;99.90;;;;;;4969428;28;20183;-79
2024/01/02 11:48:13;;;;;;;9.47;4.07;;;-15.00;99.90;;;;;;4967881;28;20211;-78
2024/01/02 11:50:50;;;;;;;9.13;4.43;;;-15.00;99.90;;;;;;4972580;28;20188;-78
2024/01/02 11:53:27;;;;;;;9.83;3.47;;;-15.10;99.90;;;;;;4971464;28;20605;-77
2024/01/02 11:56:07;;;;;;;11.38;4.93;;;-15.20;99.90;;;;;;4955144;28;20310;-82
2024/01/02 11:58:38;;;;;;;7.60;3.77;;;-15.10;99.90;;;;;;4955682;28;20203;-79
2024/01/02 12:01:25;;;;;;;9.53;3.63;;;-15.10;99.90;;;;;;4969661;28;20193;-81
2024/01/02 12:04:08;;;;;;;9.73;4.40;;;-15.00;99.90;;;;;;4947365;28;20204;-77
2024/01/02 12:07:00;;;;;;;9.03;3.50;;;-15.00;99.90;;;;;;4973012;28;20188;-78
2024/01/02 12:09:30;;;;;;;8.47;4.30;;;-15.10;99.90;;;;;;4972970;28;20658;-79
2024/01/02 12:12:15;;;;;;;9.18;3.58;;;-14.90;99.90;;;;;;4938697;28;20196;-79
2024/01/02 12:15:05;;;;;;;11.50;4.57;;;-15.10;99.90;;;;;;4971604;28;20195;-82
2024/01/02 12:17:42;;;;;;;9.00;4.37;;;-15.10;99.90;;;;;;4964403;28;20192;-82
2024/01/02 12:20:11;;;;;;;11.17;4.10;;;-15.00;99.90;;;;;;4971357;28;20608;-81
2024/01/02 12:22:39;;;;;;;6.20;3.47;;;-15.20;99.90;;;;;;4945746;28;20213;-82
2024/01/02 12:25:07;;;;;;;11.20;4.90;;;-15.30;99.90;;;;;;4972695;28;20192;-78
2024/01/02 12:27:41;;;;;;;10.53;3.80;;;-15.40;99.90;;;;;;4972650;28;20294;-79
2024/01/02 12:30:19;;;;;;;12.50;3.90;;;-15.20;99.90;;;;;;4971321;28;20258;-81
2024/01/02 12:33:29;;;;;;;11.47;4.97;;;-15.00;99.90;;;;;;4971238;28;20864;-78
2024/01/02 12:36:07;;;;;;;12.27;3.97;;;-15.10;99.90;;;;;;4911581;29;20684;-79
2024/01/02 12:38:45;;;;;;;7.73;3.37;;;-15.30;99.90;;;;;;4896848;29;20206;-80
2024/01/02 12:41:25;;;;;;;10.00;3.47;;;-15.30;99.90;;;;;;4949926;28;20230;-79
2024/01/02 12:43:56;;;;;;;12.40;3.93;;;-15.50;99.90;;;;;;4971207;28;20214;-78
2024/01/02 12:46:32;;;;;;;10.63;3.83;;;-15.20;99.90;;;;;;4972427;28;20188;-81